sensor_id;sensor_type;location;lat;lon;timestamp;pressure;altitude;pressure_sealevel;temperature;humidity
7264;BME280;3673;52.480;13.348;2023-09-19T00:00:31;100173.19;;;23.38;59.47
7264;BME280;3673;52.480;13.348;2023-09-19T00:02:59;100177.13;;;23.46;59.19
7264;BME280;3673;52.480;13.348;2023-09-19T00:05:28;100173.69;;;23.44;58.99
7264;BME280;3673;52.480;13.348;2023-09-19T00:07:57;100181.88;;;23.27;59.74
7264;BME280;3673;52.480;13.348;2023-09-19T00:10:25;100183.84;;;23.09;60.21
7264;BME280;3673;52.480;13.348;2023-09-19T00:12:52;100183.75;;;23.25;59.92
7264;BME280;3673;52.480;13.348;2023-09-19T00:15:21;100181.28;;;23.22;59.70
7264;BME280;3673;52.480;13.348;2023-09-19T00:17:47;100172.91;;;23.14;59.80
7264;BME280;3673;52.480;13.348;2023-09-19T00:20:18;100168.13;;;23.33;59.31
7264;BME280;3673;52.480;13.348;2023-09-19T00:22:48;100162.22;;;23.42;59.06
7264;BME280;3673;52.480;13.348;2023-09-19T00:25:15;100168.78;;;23.08;59.92
7264;BME280;3673;52.480;13.348;2023-09-19T00:27:42;100170.03;;;23.17;59.41
7264;BME280;3673;52.480;13.348;2023-09-19T00:30:12;100166.69;;;22.99;59.82
7264;BME280;3673;52.480;13.348;2023-09-19T00:32:42;100173.63;;;23.02;60.14
7264;BME280;3673;52.480;13.348;2023-09-19T00:35:10;100172.31;;;22.95;60.12
7264;BME280;3673;52.480;13.348;2023-09-19T00:37:37;100163.44;;;23.08;59.82
7264;BME280;3673;52.480;13.348;2023-09-19T00:40:08;100170.97;;;23.02;59.96
7264;BME280;3673;52.480;13.348;2023-09-19T00:42:38;100168.88;;;23.07;59.71
7264;BME280;3673;52.480;13.348;2023-09-19T00:45:07;100174.59;;;23.15;59.66
7264;BME280;3673;52.480;13.348;2023-09-19T00:47:36;100168.59;;;22.97;59.57
7264;BME280;3673;52.480;13.348;2023-09-19T00:50:05;100172.31;;;23.23;58.99
7264;BME280;3673;52.480;13.348;2023-09-19T00:52:35;100182.44;;;23.18;59.14
7264;BME280;3673;52.480;13.348;2023-09-19T00:55:07;100177.25;;;23.15;59.39
7264;BME280;3673;52.480;13.348;2023-09-19T00:57:35;100178.13;;;23.16;58.91
7264;BME280;3673;52.480;13.348;2023-09-19T01:00:07;100182.44;;;23.18;58.55
7264;BME280;3673;52.480;13.348;2023-09-19T01:02:36;100185.66;;;22.95;59.80
7264;BME280;3673;52.480;13.348;2023-09-19T01:05:04;100181.38;;;23.06;59.49
7264;BME280;3673;52.480;13.348;2023-09-19T01:07:32;100174.59;;;23.01;59.60
7264;BME280;3673;52.480;13.348;2023-09-19T01:10:00;100165.66;;;23.16;59.20
7264;BME280;3673;52.480;13.348;2023-09-19T01:15:28;100178.63;;;23.08;59.19
7264;BME280;3673;52.480;13.348;2023-09-19T01:18:11;100185.66;;;22.95;59.33
7264;BME280;3673;52.480;13.348;2023-09-19T01:20:45;100187.28;;;22.97;59.20
7264;BME280;3673;52.480;13.348;2023-09-19T01:23:23;100187.69;;;23.34;58.46
7264;BME280;3673;52.480;13.348;2023-09-19T01:26:07;100186.91;;;23.32;58.18
7264;BME280;3673;52.480;13.348;2023-09-19T01:29:13;100189.88;;;23.27;58.08
7264;BME280;3673;52.480;13.348;2023-09-19T01:31:47;100191.56;;;23.00;59.27
7264;BME280;3673;52.480;13.348;2023-09-19T01:37:51;100183.47;;;22.72;59.85
7264;BME280;3673;52.480;13.348;2023-09-19T01:40:20;100187.31;;;22.68;60.19
7264;BME280;3673;52.480;13.348;2023-09-19T01:42:54;100188.56;;;22.76;60.29
7264;BME280;3673;52.480;13.348;2023-09-19T01:45:33;100181.34;;;22.78;59.77
7264;BME280;3673;52.480;13.348;2023-09-19T01:50:43;100185.28;;;23.01;59.24
7264;BME280;3673;52.480;13.348;2023-09-19T01:53:23;100187.03;;;22.56;60.11
7264;BME280;3673;52.480;13.348;2023-09-19T01:55:51;100179.91;;;22.57;60.19
7264;BME280;3673;52.480;13.348;2023-09-19T01:58:25;100194.16;;;22.72;60.02
7264;BME280;3673;52.480;13.348;2023-09-19T02:00:56;100189.03;;;22.53;60.35
7264;BME280;3673;52.480;13.348;2023-09-19T02:03:27;100199.78;;;22.67;60.31
7264;BME280;3673;52.480;13.348;2023-09-19T02:05:54;100192.00;;;22.78;59.66
7264;BME280;3673;52.480;13.348;2023-09-19T02:08:22;100201.88;;;22.46;60.44
7264;BME280;3673;52.480;13.348;2023-09-19T02:10:50;100206.38;;;22.76;59.71
7264;BME280;3673;52.480;13.348;2023-09-19T02:13:19;100202.84;;;22.59;60.16
7264;BME280;3673;52.480;13.348;2023-09-19T02:15:47;100196.41;;;22.64;59.99
7264;BME280;3673;52.480;13.348;2023-09-19T02:18:14;100208.31;;;22.58;60.37
7264;BME280;3673;52.480;13.348;2023-09-19T02:20:42;100210.75;;;22.77;59.71
7264;BME280;3673;52.480;13.348;2023-09-19T02:23:10;100209.22;;;22.73;59.61
7264;BME280;3673;52.480;13.348;2023-09-19T02:25:38;100211.06;;;22.86;59.26
7264;BME280;3673;52.480;13.348;2023-09-19T02:28:06;100218.00;;;22.75;59.45
7264;BME280;3673;52.480;13.348;2023-09-19T02:30:33;100219.84;;;22.88;59.14
7264;BME280;3673;52.480;13.348;2023-09-19T02:33:01;100229.38;;;22.47;60.34
7264;BME280;3673;52.480;13.348;2023-09-19T02:35:30;100225.75;;;22.64;60.02
7264;BME280;3673;52.480;13.348;2023-09-19T02:38:02;100221.34;;;22.63;59.94
7264;BME280;3673;52.480;13.348;2023-09-19T02:40:31;100218.34;;;22.53;60.15
7264;BME280;3673;52.480;13.348;2023-09-19T02:43:01;100228.31;;;22.81;59.51
7264;BME280;3673;52.480;13.348;2023-09-19T02:45:28;100223.59;;;22.70;59.29
7264;BME280;3673;52.480;13.348;2023-09-19T02:47:56;100235.03;;;22.72;59.38
7264;BME280;3673;52.480;13.348;2023-09-19T02:50:23;100239.16;;;22.78;59.39
7264;BME280;3673;52.480;13.348;2023-09-19T02:52:49;100232.31;;;22.88;59.08
7264;BME280;3673;52.480;13.348;2023-09-19T02:55:19;100246.75;;;22.54;59.85
7264;BME280;3673;52.480;13.348;2023-09-19T02:57:47;100251.72;;;22.60;59.92
7264;BME280;3673;52.480;13.348;2023-09-19T03:00:15;100249.91;;;22.61;59.90
7264;BME280;3673;52.480;13.348;2023-09-19T03:02:47;100242.59;;;22.64;59.47
7264;BME280;3673;52.480;13.348;2023-09-19T03:05:14;100253.28;;;22.48;59.97
7264;BME280;3673;52.480;13.348;2023-09-19T03:07:41;100253.28;;;22.64;59.78
7264;BME280;3673;52.480;13.348;2023-09-19T03:10:09;100260.69;;;22.75;59.20
7264;BME280;3673;52.480;13.348;2023-09-19T03:12:37;100258.91;;;22.44;60.02
7264;BME280;3673;52.480;13.348;2023-09-19T03:15:06;100267.22;;;22.53;59.51
7264;BME280;3673;52.480;13.348;2023-09-19T03:17:35;100267.75;;;22.44;60.07
7264;BME280;3673;52.480;13.348;2023-09-19T03:20:03;100263.47;;;22.26;60.03
7264;BME280;3673;52.480;13.348;2023-09-19T03:22:34;100271.31;;;22.59;59.29
7264;BME280;3673;52.480;13.348;2023-09-19T03:25:01;100267.13;;;22.55;58.83
7264;BME280;3673;52.480;13.348;2023-09-19T03:27:27;100277.38;;;22.47;58.97
7264;BME280;3673;52.480;13.348;2023-09-19T03:29:54;100278.47;;;22.58;58.82
7264;BME280;3673;52.480;13.348;2023-09-19T03:32:21;100279.25;;;22.61;58.57
7264;BME280;3673;52.480;13.348;2023-09-19T03:34:48;100276.66;;;22.59;58.64
7264;BME280;3673;52.480;13.348;2023-09-19T03:37:15;100284.41;;;22.64;57.93
7264;BME280;3673;52.480;13.348;2023-09-19T03:39:41;100282.47;;;22.67;57.94
7264;BME280;3673;52.480;13.348;2023-09-19T03:42:08;100285.13;;;22.67;57.59
7264;BME280;3673;52.480;13.348;2023-09-19T03:44:35;100286.31;;;22.62;57.79
7264;BME280;3673;52.480;13.348;2023-09-19T03:47:03;100291.22;;;22.53;58.52
7264;BME280;3673;52.480;13.348;2023-09-19T03:49:30;100295.94;;;22.33;58.91
7264;BME280;3673;52.480;13.348;2023-09-19T03:51:57;100294.69;;;22.24;59.12
7264;BME280;3673;52.480;13.348;2023-09-19T03:54:24;100294.50;;;22.12;58.96
7264;BME280;3673;52.480;13.348;2023-09-19T03:56:51;100298.72;;;22.31;58.32
7264;BME280;3673;52.480;13.348;2023-09-19T03:59:18;100292.25;;;22.04;58.62
7264;BME280;3673;52.480;13.348;2023-09-19T04:01:45;100296.97;;;21.82;58.22
7264;BME280;3673;52.480;13.348;2023-09-19T04:04:13;100299.63;;;21.66;58.62
7264;BME280;3673;52.480;13.348;2023-09-19T04:06:40;100298.03;;;22.28;57.79
7264;BME280;3673;52.480;13.348;2023-09-19T04:09:08;100312.47;;;22.24;56.12
7264;BME280;3673;52.480;13.348;2023-09-19T04:11:34;100295.44;;;21.95;56.78
7264;BME280;3673;52.480;13.348;2023-09-19T04:14:03;100302.97;;;22.02;56.00
7264;BME280;3673;52.480;13.348;2023-09-19T04:16:30;100306.75;;;21.98;56.12
7264;BME280;3673;52.480;13.348;2023-09-19T04:18:56;100309.28;;;22.01;55.82
7264;BME280;3673;52.480;13.348;2023-09-19T04:21:24;100305.66;;;21.85;56.33
7264;BME280;3673;52.480;13.348;2023-09-19T04:23:52;100309.03;;;21.89;55.40
7264;BME280;3673;52.480;13.348;2023-09-19T04:26:18;100310.22;;;22.16;55.38
7264;BME280;3673;52.480;13.348;2023-09-19T04:28:45;100327.34;;;22.43;54.70
7264;BME280;3673;52.480;13.348;2023-09-19T04:31:12;100319.34;;;22.43;54.99
7264;BME280;3673;52.480;13.348;2023-09-19T04:33:39;100324.69;;;22.28;54.03
7264;BME280;3673;52.480;13.348;2023-09-19T04:36:06;100318.22;;;21.83;55.03
7264;BME280;3673;52.480;13.348;2023-09-19T04:38:35;100329.16;;;22.12;54.95
7264;BME280;3673;52.480;13.348;2023-09-19T04:41:02;100335.00;;;22.49;53.86
7264;BME280;3673;52.480;13.348;2023-09-19T04:43:29;100332.22;;;22.20;53.54
7264;BME280;3673;52.480;13.348;2023-09-19T04:45:56;100326.38;;;22.13;54.13
7264;BME280;3673;52.480;13.348;2023-09-19T04:48:25;100335.84;;;21.86;54.66
7264;BME280;3673;52.480;13.348;2023-09-19T04:50:54;100333.66;;;21.94;54.82
7264;BME280;3673;52.480;13.348;2023-09-19T04:53:21;100337.44;;;22.05;55.12
7264;BME280;3673;52.480;13.348;2023-09-19T04:55:51;100344.34;;;22.25;54.16
7264;BME280;3673;52.480;13.348;2023-09-19T04:58:21;100349.25;;;22.48;53.67
7264;BME280;3673;52.480;13.348;2023-09-19T05:00:48;100345.50;;;22.37;52.88
7264;BME280;3673;52.480;13.348;2023-09-19T05:03:16;100346.94;;;22.11;53.75
7264;BME280;3673;52.480;13.348;2023-09-19T05:05:45;100348.22;;;22.20;53.92
7264;BME280;3673;52.480;13.348;2023-09-19T05:08:12;100347.16;;;22.06;54.22
7264;BME280;3673;52.480;13.348;2023-09-19T05:10:40;100364.31;;;22.18;53.52
7264;BME280;3673;52.480;13.348;2023-09-19T05:13:08;100362.41;;;22.04;54.18
7264;BME280;3673;52.480;13.348;2023-09-19T05:15:35;100359.56;;;22.39;52.96
7264;BME280;3673;52.480;13.348;2023-09-19T05:18:03;100367.09;;;21.99;53.07
7264;BME280;3673;52.480;13.348;2023-09-19T05:20:31;100371.84;;;21.60;54.08
7264;BME280;3673;52.480;13.348;2023-09-19T05:23:01;100384.28;;;21.94;53.41
7264;BME280;3673;52.480;13.348;2023-09-19T05:25:28;100388.34;;;21.84;54.03
7264;BME280;3673;52.480;13.348;2023-09-19T05:27:57;100383.63;;;21.89;53.78
7264;BME280;3673;52.480;13.348;2023-09-19T05:30:26;100384.13;;;21.97;53.61
7264;BME280;3673;52.480;13.348;2023-09-19T05:32:55;100393.38;;;21.90;54.03
7264;BME280;3673;52.480;13.348;2023-09-19T05:35:23;100387.72;;;21.62;54.30
7264;BME280;3673;52.480;13.348;2023-09-19T05:37:51;100396.72;;;21.42;54.87
7264;BME280;3673;52.480;13.348;2023-09-19T05:40:18;100392.44;;;21.39;54.55
7264;BME280;3673;52.480;13.348;2023-09-19T05:42:45;100400.50;;;21.89;54.06
7264;BME280;3673;52.480;13.348;2023-09-19T05:45:13;100402.03;;;22.11;52.82
7264;BME280;3673;52.480;13.348;2023-09-19T05:47:45;100407.84;;;22.34;52.28
7264;BME280;3673;52.480;13.348;2023-09-19T05:50:12;100412.16;;;22.04;52.83
7264;BME280;3673;52.480;13.348;2023-09-19T05:52:40;100407.34;;;22.11;52.96
7264;BME280;3673;52.480;13.348;2023-09-19T05:55:09;100419.44;;;22.00;52.49
7264;BME280;3673;52.480;13.348;2023-09-19T05:57:37;100429.03;;;22.20;52.79
7264;BME280;3673;52.480;13.348;2023-09-19T06:00:06;100428.09;;;22.21;52.48
7264;BME280;3673;52.480;13.348;2023-09-19T06:02:35;100431.50;;;22.08;52.44
7264;BME280;3673;52.480;13.348;2023-09-19T06:05:04;100446.09;;;22.00;52.86
7264;BME280;3673;52.480;13.348;2023-09-19T06:07:31;100439.00;;;22.17;52.32
7264;BME280;3673;52.480;13.348;2023-09-19T06:10:02;100445.00;;;22.04;53.26
7264;BME280;3673;52.480;13.348;2023-09-19T06:12:31;100458.94;;;22.25;52.35
7264;BME280;3673;52.480;13.348;2023-09-19T06:14:59;100447.94;;;21.98;52.28
7264;BME280;3673;52.480;13.348;2023-09-19T06:17:26;100455.44;;;22.25;52.44
7264;BME280;3673;52.480;13.348;2023-09-19T06:19:53;100457.81;;;22.46;51.23
7264;BME280;3673;52.480;13.348;2023-09-19T06:22:23;100454.38;;;22.44;51.70
7264;BME280;3673;52.480;13.348;2023-09-19T06:24:50;100448.88;;;22.15;52.03
7264;BME280;3673;52.480;13.348;2023-09-19T06:27:16;100452.91;;;22.22;52.41
7264;BME280;3673;52.480;13.348;2023-09-19T06:29:43;100457.78;;;22.31;51.62
7264;BME280;3673;52.480;13.348;2023-09-19T06:32:10;100467.75;;;22.27;51.79
7264;BME280;3673;52.480;13.348;2023-09-19T06:34:37;100461.41;;;22.13;51.60
7264;BME280;3673;52.480;13.348;2023-09-19T06:37:04;100466.94;;;22.25;51.88
7264;BME280;3673;52.480;13.348;2023-09-19T06:39:32;100482.00;;;22.26;52.58
7264;BME280;3673;52.480;13.348;2023-09-19T06:41:59;100494.31;;;22.29;51.74
7264;BME280;3673;52.480;13.348;2023-09-19T06:44:27;100476.53;;;22.12;51.85
7264;BME280;3673;52.480;13.348;2023-09-19T06:46:55;100479.66;;;22.37;51.23
7264;BME280;3673;52.480;13.348;2023-09-19T06:49:22;100473.28;;;22.07;51.90
7264;BME280;3673;52.480;13.348;2023-09-19T06:51:48;100483.44;;;21.82;52.35
7264;BME280;3673;52.480;13.348;2023-09-19T06:54:15;100487.03;;;22.15;51.34
7264;BME280;3673;52.480;13.348;2023-09-19T06:56:44;100485.47;;;22.28;51.08
7264;BME280;3673;52.480;13.348;2023-09-19T06:59:11;100487.47;;;22.08;51.39
7264;BME280;3673;52.480;13.348;2023-09-19T07:01:40;100486.59;;;22.40;50.83
7264;BME280;3673;52.480;13.348;2023-09-19T07:04:06;100489.66;;;22.65;50.41
7264;BME280;3673;52.480;13.348;2023-09-19T07:06:33;100496.81;;;22.65;49.81
7264;BME280;3673;52.480;13.348;2023-09-19T07:09:01;100495.94;;;22.81;49.53
7264;BME280;3673;52.480;13.348;2023-09-19T07:11:28;100510.22;;;22.30;50.54
7264;BME280;3673;52.480;13.348;2023-09-19T07:13:57;100510.78;;;22.52;50.32
7264;BME280;3673;52.480;13.348;2023-09-19T07:16:24;100508.41;;;22.48;50.20
7264;BME280;3673;52.480;13.348;2023-09-19T07:18:55;100508.97;;;22.37;50.75
7264;BME280;3673;52.480;13.348;2023-09-19T07:21:23;100533.53;;;22.27;50.22
7264;BME280;3673;52.480;13.348;2023-09-19T07:23:49;100515.84;;;21.91;50.76
7264;BME280;3673;52.480;13.348;2023-09-19T07:26:16;100517.22;;;22.16;50.19
7264;BME280;3673;52.480;13.348;2023-09-19T07:28:43;100523.25;;;22.02;50.77
7264;BME280;3673;52.480;13.348;2023-09-19T07:31:11;100518.38;;;22.44;49.51
7264;BME280;3673;52.480;13.348;2023-09-19T07:33:40;100528.53;;;22.86;48.91
7264;BME280;3673;52.480;13.348;2023-09-19T07:36:10;100530.53;;;22.66;48.87
7264;BME280;3673;52.480;13.348;2023-09-19T07:38:39;100527.16;;;23.26;47.72
7264;BME280;3673;52.480;13.348;2023-09-19T07:41:06;100536.81;;;23.29;47.32
7264;BME280;3673;52.480;13.348;2023-09-19T07:43:34;100545.50;;;22.35;48.73
7264;BME280;3673;52.480;13.348;2023-09-19T07:46:04;100541.50;;;22.44;48.51
7264;BME280;3673;52.480;13.348;2023-09-19T07:48:33;100542.28;;;22.79;47.68
7264;BME280;3673;52.480;13.348;2023-09-19T07:51:04;100547.63;;;22.79;47.34
7264;BME280;3673;52.480;13.348;2023-09-19T07:53:32;100543.81;;;22.50;48.22
7264;BME280;3673;52.480;13.348;2023-09-19T07:56:05;100556.25;;;22.84;47.63
7264;BME280;3673;52.480;13.348;2023-09-19T08:01:04;100558.28;;;22.79;46.99
7264;BME280;3673;52.480;13.348;2023-09-19T08:03:33;100567.00;;;22.65;47.37
7264;BME280;3673;52.480;13.348;2023-09-19T08:06:01;100563.06;;;22.89;47.01
7264;BME280;3673;52.480;13.348;2023-09-19T08:08:28;100557.44;;;22.28;47.04
7264;BME280;3673;52.480;13.348;2023-09-19T08:10:56;100559.78;;;22.17;46.92
7264;BME280;3673;52.480;13.348;2023-09-19T08:13:23;100564.94;;;22.37;46.71
7264;BME280;3673;52.480;13.348;2023-09-19T08:15:50;100553.19;;;22.41;46.54
7264;BME280;3673;52.480;13.348;2023-09-19T08:18:18;100551.31;;;22.26;46.44
7264;BME280;3673;52.480;13.348;2023-09-19T08:20:51;100560.41;;;22.05;47.16
7264;BME280;3673;52.480;13.348;2023-09-19T08:23:18;100569.91;;;22.11;46.50
7264;BME280;3673;52.480;13.348;2023-09-19T08:25:47;100572.06;;;22.02;46.70
7264;BME280;3673;52.480;13.348;2023-09-19T08:28:14;100575.09;;;21.78;47.54
7264;BME280;3673;52.480;13.348;2023-09-19T08:30:45;100584.00;;;22.30;46.50
7264;BME280;3673;52.480;13.348;2023-09-19T08:33:12;100570.50;;;21.98;47.18
7264;BME280;3673;52.480;13.348;2023-09-19T08:35:40;100568.16;;;22.44;46.31
7264;BME280;3673;52.480;13.348;2023-09-19T08:38:10;100574.09;;;22.66;45.65
7264;BME280;3673;52.480;13.348;2023-09-19T08:40:38;100573.13;;;22.34;46.09
7264;BME280;3673;52.480;13.348;2023-09-19T08:43:06;100572.34;;;21.79;46.98
7264;BME280;3673;52.480;13.348;2023-09-19T08:45:33;100571.38;;;22.16;45.87
7264;BME280;3673;52.480;13.348;2023-09-19T08:48:12;100584.94;;;21.94;46.31
7264;BME280;3673;52.480;13.348;2023-09-19T08:50:47;100581.69;;;21.88;46.77
7264;BME280;3673;52.480;13.348;2023-09-19T08:53:25;100587.84;;;22.07;45.89
7264;BME280;3673;52.480;13.348;2023-09-19T08:55:55;100590.13;;;21.97;46.25
7264;BME280;3673;52.480;13.348;2023-09-19T08:58:27;100593.72;;;22.48;45.32
7264;BME280;3673;52.480;13.348;2023-09-19T09:01:00;100588.56;;;22.45;44.95
7264;BME280;3673;52.480;13.348;2023-09-19T09:03:31;100586.25;;;23.04;44.14
7264;BME280;3673;52.480;13.348;2023-09-19T09:05:59;100601.22;;;23.07;43.61
7264;BME280;3673;52.480;13.348;2023-09-19T09:08:29;100597.53;;;22.77;43.74
7264;BME280;3673;52.480;13.348;2023-09-19T09:10:57;100603.69;;;22.44;44.68
7264;BME280;3673;52.480;13.348;2023-09-19T09:13:25;100603.91;;;22.40;44.94
7264;BME280;3673;52.480;13.348;2023-09-19T09:15:53;100604.56;;;22.95;43.84
7264;BME280;3673;52.480;13.348;2023-09-19T09:18:20;100600.91;;;22.80;43.41
7264;BME280;3673;52.480;13.348;2023-09-19T09:20:48;100607.03;;;23.31;42.38
7264;BME280;3673;52.480;13.348;2023-09-19T09:23:14;100609.16;;;23.40;41.96
7264;BME280;3673;52.480;13.348;2023-09-19T09:25:50;100598.84;;;23.34;41.92
7264;BME280;3673;52.480;13.348;2023-09-19T09:28:22;100612.06;;;23.20;42.11
7264;BME280;3673;52.480;13.348;2023-09-19T09:30:49;100601.94;;;24.34;39.65
7264;BME280;3673;52.480;13.348;2023-09-19T09:33:17;100612.16;;;23.96;40.07
7264;BME280;3673;52.480;13.348;2023-09-19T09:35:51;100620.84;;;24.16;39.47
7264;BME280;3673;52.480;13.348;2023-09-19T09:38:23;100612.16;;;23.96;38.91
7264;BME280;3673;52.480;13.348;2023-09-19T09:40:56;100617.16;;;22.76;41.68
7264;BME280;3673;52.480;13.348;2023-09-19T09:43:32;100613.94;;;23.02;40.84
7264;BME280;3673;52.480;13.348;2023-09-19T09:46:11;100613.56;;;23.72;39.43
7264;BME280;3673;52.480;13.348;2023-09-19T09:49:10;100617.94;;;23.89;39.55
7264;BME280;3673;52.480;13.348;2023-09-19T09:52:00;100613.97;;;24.41;38.07
7264;BME280;3673;52.480;13.348;2023-09-19T09:54:31;100619.22;;;24.43;37.49
7264;BME280;3673;52.480;13.348;2023-09-19T09:57:06;100613.34;;;24.80;36.57
7264;BME280;3673;52.480;13.348;2023-09-19T09:59:51;100630.22;;;24.52;35.14
7264;BME280;3673;52.480;13.348;2023-09-19T10:02:24;100623.00;;;25.39;34.59
7264;BME280;3673;52.480;13.348;2023-09-19T10:04:55;100618.81;;;25.90;33.67
7264;BME280;3673;52.480;13.348;2023-09-19T10:07:34;100619.53;;;25.92;33.60
7264;BME280;3673;52.480;13.348;2023-09-19T10:10:06;100619.94;;;26.13;33.53
7264;BME280;3673;52.480;13.348;2023-09-19T10:12:45;100619.16;;;26.25;33.79
7264;BME280;3673;52.480;13.348;2023-09-19T10:15:16;100616.31;;;25.60;34.33
7264;BME280;3673;52.480;13.348;2023-09-19T10:17:47;100617.47;;;25.56;34.81
7264;BME280;3673;52.480;13.348;2023-09-19T10:20:16;100612.56;;;25.49;34.50
7264;BME280;3673;52.480;13.348;2023-09-19T10:23:06;100612.69;;;25.88;33.47
7264;BME280;3673;52.480;13.348;2023-09-19T10:25:40;100604.25;;;26.21;32.94
7264;BME280;3673;52.480;13.348;2023-09-19T10:28:10;100597.34;;;25.49;33.32
7264;BME280;3673;52.480;13.348;2023-09-19T10:30:37;100608.88;;;25.09;33.92
7264;BME280;3673;52.480;13.348;2023-09-19T10:33:09;100607.47;;;24.89;34.13
7264;BME280;3673;52.480;13.348;2023-09-19T10:35:38;100614.28;;;24.51;35.46
7264;BME280;3673;52.480;13.348;2023-09-19T10:38:07;100614.75;;;24.14;36.00
7264;BME280;3673;52.480;13.348;2023-09-19T10:40:37;100600.75;;;23.63;37.24
7264;BME280;3673;52.480;13.348;2023-09-19T10:43:15;100607.31;;;24.48;34.32
7264;BME280;3673;52.480;13.348;2023-09-19T10:45:45;100595.28;;;25.40;32.65
7264;BME280;3673;52.480;13.348;2023-09-19T10:48:15;100603.06;;;25.98;31.45
7264;BME280;3673;52.480;13.348;2023-09-19T10:50:48;100610.72;;;26.44;30.81
7264;BME280;3673;52.480;13.348;2023-09-19T10:53:17;100598.09;;;25.66;31.20
7264;BME280;3673;52.480;13.348;2023-09-19T10:55:51;100601.50;;;25.82;30.65
7264;BME280;3673;52.480;13.348;2023-09-19T10:58:31;100621.97;;;26.36;29.76
7264;BME280;3673;52.480;13.348;2023-09-19T11:01:00;100606.81;;;25.14;31.55
7264;BME280;3673;52.480;13.348;2023-09-19T11:03:32;100606.13;;;25.66;30.94
7264;BME280;3673;52.480;13.348;2023-09-19T11:06:08;100602.44;;;25.40;31.24
7264;BME280;3673;52.480;13.348;2023-09-19T11:09:01;100600.06;;;26.30;30.16
7264;BME280;3673;52.480;13.348;2023-09-19T11:11:50;100614.78;;;26.62;29.32
7264;BME280;3673;52.480;13.348;2023-09-19T11:14:41;100612.72;;;26.28;30.03
7264;BME280;3673;52.480;13.348;2023-09-19T11:17:40;100621.41;;;25.92;29.47
7264;BME280;3673;52.480;13.348;2023-09-19T11:20:22;100628.19;;;26.49;29.27
7264;BME280;3673;52.480;13.348;2023-09-19T11:23:23;100626.72;;;26.71;28.94
7264;BME280;3673;52.480;13.348;2023-09-19T11:25:53;100612.16;;;26.87;28.13
7264;BME280;3673;52.480;13.348;2023-09-19T11:28:36;100621.38;;;27.94;27.59
7264;BME280;3673;52.480;13.348;2023-09-19T11:31:42;100611.47;;;27.94;27.16
7264;BME280;3673;52.480;13.348;2023-09-19T11:34:46;100619.53;;;26.58;29.15
7264;BME280;3673;52.480;13.348;2023-09-19T11:38:04;100615.72;;;26.88;28.93
7264;BME280;3673;52.480;13.348;2023-09-19T11:40:36;100619.28;;;27.50;28.25
7264;BME280;3673;52.480;13.348;2023-09-19T11:43:29;100623.41;;;26.15;29.83
7264;BME280;3673;52.480;13.348;2023-09-19T11:46:06;100613.03;;;25.70;31.25
7264;BME280;3673;52.480;13.348;2023-09-19T11:48:35;100613.63;;;26.66;30.07
7264;BME280;3673;52.480;13.348;2023-09-19T11:51:17;100620.22;;;26.87;28.32
7264;BME280;3673;52.480;13.348;2023-09-19T11:53:53;100615.06;;;26.97;28.18
7264;BME280;3673;52.480;13.348;2023-09-19T11:56:22;100615.94;;;27.83;27.29
7264;BME280;3673;52.480;13.348;2023-09-19T11:58:51;100608.66;;;27.72;27.26
7264;BME280;3673;52.480;13.348;2023-09-19T12:01:26;100614.16;;;27.09;27.66
7264;BME280;3673;52.480;13.348;2023-09-19T12:03:57;100623.28;;;26.56;28.68
7264;BME280;3673;52.480;13.348;2023-09-19T12:06:25;100616.78;;;26.21;29.33
7264;BME280;3673;52.480;13.348;2023-09-19T12:08:53;100628.47;;;26.72;28.45
7264;BME280;3673;52.480;13.348;2023-09-19T12:11:22;100631.84;;;25.27;29.80
7264;BME280;3673;52.480;13.348;2023-09-19T12:13:49;100628.09;;;25.16;29.96
7264;BME280;3673;52.480;13.348;2023-09-19T12:16:20;100624.28;;;25.34;29.75
7264;BME280;3673;52.480;13.348;2023-09-19T12:18:51;100627.34;;;26.09;29.22
7264;BME280;3673;52.480;13.348;2023-09-19T12:21:28;100626.50;;;26.48;28.29
7264;BME280;3673;52.480;13.348;2023-09-19T12:24:05;100629.53;;;26.17;28.10
7264;BME280;3673;52.480;13.348;2023-09-19T12:26:39;100633.59;;;25.69;27.99
7264;BME280;3673;52.480;13.348;2023-09-19T12:29:15;100622.34;;;25.91;28.29
7264;BME280;3673;52.480;13.348;2023-09-19T12:31:55;100623.88;;;25.54;28.72
7264;BME280;3673;52.480;13.348;2023-09-19T12:34:24;100624.19;;;26.17;28.53
7264;BME280;3673;52.480;13.348;2023-09-19T12:37:08;100620.56;;;26.43;27.71
7264;BME280;3673;52.480;13.348;2023-09-19T12:39:43;100624.09;;;26.19;28.54
7264;BME280;3673;52.480;13.348;2023-09-19T12:42:15;100610.78;;;26.03;28.32
7264;BME280;3673;52.480;13.348;2023-09-19T12:44:43;100618.63;;;26.85;27.55
7264;BME280;3673;52.480;13.348;2023-09-19T12:47:13;100620.50;;;26.57;28.00
7264;BME280;3673;52.480;13.348;2023-09-19T12:50:07;100605.41;;;26.30;28.72
7264;BME280;3673;52.480;13.348;2023-09-19T12:52:42;100611.81;;;25.88;29.11
7264;BME280;3673;52.480;13.348;2023-09-19T12:55:20;100610.78;;;25.35;29.88
7264;BME280;3673;52.480;13.348;2023-09-19T12:58:08;100621.53;;;25.21;30.39
7264;BME280;3673;52.480;13.348;2023-09-19T13:00:37;100613.59;;;25.75;29.87
7264;BME280;3673;52.480;13.348;2023-09-19T13:03:18;100620.81;;;25.46;30.37
7264;BME280;3673;52.480;13.348;2023-09-19T13:05:49;100604.88;;;25.16;30.72
7264;BME280;3673;52.480;13.348;2023-09-19T13:08:21;100621.72;;;24.90;31.24
7264;BME280;3673;52.480;13.348;2023-09-19T13:11:05;100630.03;;;25.14;30.46
7264;BME280;3673;52.480;13.348;2023-09-19T13:13:36;100614.28;;;24.95;30.91
7264;BME280;3673;52.480;13.348;2023-09-19T13:16:03;100621.59;;;25.48;30.15
7264;BME280;3673;52.480;13.348;2023-09-19T13:18:42;100621.69;;;25.87;29.58
7264;BME280;3673;52.480;13.348;2023-09-19T13:21:12;100628.75;;;25.47;30.09
7264;BME280;3673;52.480;13.348;2023-09-19T13:23:51;100621.50;;;26.03;28.85
7264;BME280;3673;52.480;13.348;2023-09-19T13:26:19;100622.69;;;25.72;29.64
7264;BME280;3673;52.480;13.348;2023-09-19T13:28:46;100614.75;;;25.71;29.89
7264;BME280;3673;52.480;13.348;2023-09-19T13:31:15;100621.44;;;26.04;29.27